Time;durP1;ratioP1;P1;durP2;ratioP2;P2;SDS_P1;SDS_P2;PMS_P1;PMS_P2;Temp;Humidity;BMP_temperature;BMP_pressure;BME280_temperature;BME280_humidity;BME280_pressure;Samples;Min_cycle;Max_cycle;Signal;HPM_P1;HPM_P2
2023/07/27 00:02:25;;;;;;;8.40;6.38;;;12.40;99.90;;;;;;5070432;28;20045;-83
2023/07/27 00:04:51;;;;;;;9.00;6.75;;;12.50;99.90;;;;;;5068564;28;20045;-82
2023/07/27 00:07:17;;;;;;;8.27;6.28;;;12.50;99.90;;;;;;5067363;28;20375;-82
2023/07/27 00:09:42;;;;;;;7.82;6.60;;;12.50;99.90;;;;;;5067294;28;20052;-82
2023/07/27 00:12:08;;;;;;;7.43;5.82;;;12.60;99.90;;;;;;5090832;28;20070;-83
2023/07/27 00:14:34;;;;;;;8.23;6.35;;;12.50;99.90;;;;;;5070786;28;20673;-83
2023/07/27 00:16:59;;;;;;;12.35;6.50;;;12.50;99.90;;;;;;5075041;28;20041;-82
2023/07/27 00:19:25;;;;;;;8.75;5.97;;;12.50;99.90;;;;;;5073757;28;20040;-82
2023/07/27 00:21:53;;;;;;;8.65;5.80;;;12.60;99.90;;;;;;5071706;28;20135;-82
2023/07/27 00:24:18;;;;;;;7.82;5.90;;;12.60;99.90;;;;;;5071781;28;20449;-83
2023/07/27 00:26:44;;;;;;;10.10;6.07;;;12.70;99.90;;;;;;5070618;28;20044;-82
2023/07/27 00:29:10;;;;;;;8.50;6.38;;;12.70;99.90;;;;;;5086671;28;20048;-82
2023/07/27 00:31:35;;;;;;;7.93;5.53;;;12.70;99.90;;;;;;5069013;28;20060;-82
2023/07/27 00:34:01;;;;;;;8.57;5.85;;;12.80;99.90;;;;;;5079828;28;20052;-82
2023/07/27 00:36:27;;;;;;;9.40;5.93;;;12.80;99.90;;;;;;5089663;28;20055;-82
2023/07/27 00:38:52;;;;;;;10.15;5.43;;;12.90;99.90;;;;;;5076239;28;20048;-82
2023/07/27 00:41:18;;;;;;;7.60;5.63;;;12.90;99.90;;;;;;5073241;28;20383;-83
2023/07/27 00:43:44;;;;;;;7.75;5.55;;;12.90;99.90;;;;;;5080500;28;20096;-82
2023/07/27 00:46:10;;;;;;;8.07;6.13;;;13.40;99.90;;;;;;5092393;28;20036;-83
2023/07/27 00:48:39;;;;;;;6.30;5.57;;;12.90;99.90;;;;;;5093360;28;20048;-83
2023/07/27 00:51:09;;;;;;;7.22;5.85;;;12.90;99.90;;;;;;5094739;28;20561;-83
2023/07/27 00:53:35;;;;;;;7.20;5.60;;;13.00;99.90;;;;;;5082570;28;20525;-83
2023/07/27 00:56:01;;;;;;;7.40;5.60;;;13.40;99.90;;;;;;5082521;28;20471;-83
2023/07/27 00:58:27;;;;;;;6.13;5.40;;;13.30;99.90;;;;;;5086567;28;20044;-83
2023/07/27 01:00:53;;;;;;;7.47;5.15;;;13.20;99.90;;;;;;5083763;28;20048;-82
2023/07/27 01:03:22;;;;;;;6.50;5.80;;;13.10;99.90;;;;;;5104600;28;20050;-82
2023/07/27 01:05:48;;;;;;;7.40;5.97;;;13.20;99.90;;;;;;5098705;28;20121;-83
2023/07/27 01:08:14;;;;;;;7.65;5.78;;;13.20;99.90;;;;;;5101500;28;20051;-82
2023/07/27 01:11:11;;;;;;;6.68;5.93;;;13.30;99.90;;;;;;5087426;28;20044;-82
2023/07/27 01:13:57;;;;;;;6.50;5.30;;;13.40;99.90;;;;;;5099825;28;20051;-83
2023/07/27 01:16:33;;;;;;;8.32;5.82;;;13.40;99.90;;;;;;5098058;28;20040;-84
2023/07/27 01:19:19;;;;;;;8.85;5.90;;;13.40;99.90;;;;;;5100411;28;20044;-82
2023/07/27 01:21:49;;;;;;;7.82;5.90;;;13.40;99.90;;;;;;5098976;28;20040;-83
2023/07/27 01:24:36;;;;;;;8.13;6.10;;;13.70;99.90;;;;;;5097162;28;20557;-83
2023/07/27 01:27:17;;;;;;;10.10;6.43;;;13.50;99.90;;;;;;5093639;28;20071;-82
2023/07/27 01:30:23;;;;;;;8.60;6.18;;;13.50;99.90;;;;;;5087805;28;20495;-82
2023/07/27 01:32:56;;;;;;;7.85;5.63;;;13.50;99.90;;;;;;5072569;28;20110;-83
2023/07/27 01:35:33;;;;;;;8.32;6.45;;;13.60;99.90;;;;;;5071920;28;20824;-83
2023/07/27 01:38:01;;;;;;;7.68;6.13;;;13.50;99.90;;;;;;5076524;28;20056;-83
2023/07/27 01:40:28;;;;;;;9.88;6.20;;;13.40;99.90;;;;;;5072857;28;20076;-83
2023/07/27 01:42:55;;;;;;;7.30;5.78;;;13.60;99.90;;;;;;5072517;28;20041;-83
2023/07/27 01:45:22;;;;;;;9.20;6.47;;;13.60;99.90;;;;;;5073010;28;20533;-82
2023/07/27 01:47:49;;;;;;;8.35;6.40;;;13.60;99.90;;;;;;5072849;28;20436;-83
2023/07/27 01:50:16;;;;;;;9.27;5.85;;;13.60;99.90;;;;;;5056880;28;20037;-83
2023/07/27 01:52:43;;;;;;;8.02;6.13;;;13.60;99.90;;;;;;5072603;28;20563;-83
2023/07/27 01:55:10;;;;;;;8.50;6.32;;;13.40;99.90;;;;;;5076049;28;20040;-84
2023/07/27 01:57:36;;;;;;;7.03;5.75;;;13.60;99.90;;;;;;5090107;28;20074;-83
2023/07/27 02:00:03;;;;;;;7.45;6.50;;;13.60;99.90;;;;;;5089051;28;20063;-83
2023/07/27 02:02:29;;;;;;;7.63;5.50;;;13.60;99.90;;;;;;5112912;28;20056;-83
2023/07/27 02:04:57;;;;;;;7.95;6.03;;;13.60;99.90;;;;;;5092609;28;20052;-84
2023/07/27 02:07:23;;;;;;;7.85;6.55;;;13.60;99.90;;;;;;5100742;28;20043;-83
2023/07/27 02:09:49;;;;;;;8.65;6.20;;;13.60;99.90;;;;;;5080227;28;20044;-83
2023/07/27 02:12:24;;;;;;;8.25;6.07;;;13.50;99.90;;;;;;5075756;28;20050;-83
2023/07/27 02:14:58;;;;;;;6.78;5.70;;;13.60;99.90;;;;;;5086856;28;20106;-83
2023/07/27 02:17:30;;;;;;;10.93;6.63;;;13.80;99.90;;;;;;5092043;28;20036;-83
2023/07/27 02:19:57;;;;;;;9.95;6.10;;;13.60;99.90;;;;;;5093460;28;20074;-84
2023/07/27 02:22:25;;;;;;;6.97;6.05;;;13.50;99.90;;;;;;5090232;28;20044;-84
2023/07/27 02:24:50;;;;;;;8.23;6.40;;;13.60;99.90;;;;;;5087835;28;20048;-83
2023/07/27 02:27:16;;;;;;;8.90;6.03;;;13.70;99.90;;;;;;5080818;28;20048;-85
2023/07/27 02:29:42;;;;;;;7.50;5.93;;;13.90;99.90;;;;;;5093273;28;20059;-83
2023/07/27 02:32:07;;;;;;;6.82;5.63;;;13.60;99.90;;;;;;5074720;28;20045;-83
2023/07/27 02:34:33;;;;;;;11.02;6.38;;;13.50;99.90;;;;;;5065275;28;20063;-83
2023/07/27 02:36:59;;;;;;;7.90;6.45;;;13.50;99.90;;;;;;5076647;28;20075;-83
2023/07/27 02:39:24;;;;;;;6.93;6.10;;;13.50;99.90;;;;;;5074323;28;20056;-84
2023/07/27 02:41:50;;;;;;;6.75;5.80;;;13.40;99.90;;;;;;5087157;28;20126;-83
2023/07/27 02:44:16;;;;;;;7.10;6.00;;;13.50;99.90;;;;;;5054625;28;20641;-83
2023/07/27 02:46:41;;;;;;;7.07;5.60;;;13.50;99.90;;;;;;5083440;28;20028;-83
2023/07/27 02:49:07;;;;;;;6.75;5.78;;;13.50;99.90;;;;;;5085013;28;20036;-83
2023/07/27 02:51:33;;;;;;;5.97;5.38;;;13.60;99.90;;;;;;5052665;28;20437;-83
2023/07/27 02:53:58;;;;;;;7.70;5.95;;;13.50;99.90;;;;;;5071483;28;20048;-83
2023/07/27 02:56:24;;;;;;;8.32;6.38;;;13.60;99.90;;;;;;5052992;28;20044;-81
2023/07/27 02:58:50;;;;;;;6.82;5.75;;;13.50;99.90;;;;;;5069288;28;20047;-82
2023/07/27 03:01:15;;;;;;;9.98;6.32;;;13.50;99.90;;;;;;5065755;28;20098;-81
2023/07/27 03:03:41;;;;;;;7.50;6.35;;;13.50;99.90;;;;;;5071806;28;20047;-82
2023/07/27 03:06:07;;;;;;;8.18;6.20;;;13.60;99.90;;;;;;5070881;28;20041;-82
2023/07/27 03:08:35;;;;;;;8.85;6.60;;;13.60;99.90;;;;;;5073032;28;20383;-83
2023/07/27 03:11:02;;;;;;;8.15;7.00;;;13.50;99.90;;;;;;5070627;28;20063;-82
2023/07/27 03:13:28;;;;;;;9.57;7.20;;;13.50;99.90;;;;;;5053825;28;20094;-82
2023/07/27 03:15:53;;;;;;;8.63;7.30;;;13.50;99.90;;;;;;5067278;28;20044;-82
2023/07/27 03:18:21;;;;;;;7.65;6.55;;;13.60;99.90;;;;;;5079798;28;20158;-82
2023/07/27 03:20:46;;;;;;;8.38;7.00;;;13.60;99.90;;;;;;5069193;28;20559;-82
2023/07/27 03:23:12;;;;;;;9.77;7.20;;;13.60;99.90;;;;;;5078249;28;20155;-83
2023/07/27 03:25:38;;;;;;;8.85;7.03;;;14.10;99.90;;;;;;5069289;28;20055;-83
2023/07/27 03:28:06;;;;;;;9.32;6.65;;;13.60;99.90;;;;;;5050567;28;20131;-82
2023/07/27 03:30:33;;;;;;;8.55;6.97;;;13.70;99.90;;;;;;5078680;28;20050;-82
2023/07/27 03:32:59;;;;;;;8.90;6.93;;;13.60;99.90;;;;;;5075692;28;20045;-82
2023/07/27 03:35:24;;;;;;;8.93;6.97;;;13.60;99.90;;;;;;5072574;28;20040;-82
2023/07/27 03:37:53;;;;;;;10.45;8.20;;;13.70;99.90;;;;;;5067974;28;20051;-82
2023/07/27 03:40:19;;;;;;;11.50;7.65;;;13.80;99.90;;;;;;5088117;28;20048;-82
2023/07/27 03:42:45;;;;;;;8.88;7.07;;;13.70;99.90;;;;;;5079980;28;20459;-82
2023/07/27 03:45:14;;;;;;;7.57;6.47;;;14.00;99.90;;;;;;5070251;28;20056;-82
2023/07/27 03:47:43;;;;;;;9.45;7.35;;;13.70;99.90;;;;;;5071104;28;20051;-82
2023/07/27 03:50:09;;;;;;;10.52;7.68;;;13.70;99.90;;;;;;5070466;28;20045;-82
2023/07/27 03:52:35;;;;;;;8.63;7.72;;;13.60;99.90;;;;;;5084514;28;20487;-82
2023/07/27 03:55:00;;;;;;;10.05;7.38;;;13.60;99.90;;;;;;5070950;28;20087;-82
2023/07/27 03:57:26;;;;;;;8.43;7.53;;;13.60;99.90;;;;;;5068822;28;20446;-83
2023/07/27 03:59:56;;;;;;;8.82;6.63;;;13.60;99.90;;;;;;5068295;28;20044;-84
2023/07/27 04:02:23;;;;;;;9.13;7.80;;;13.60;99.90;;;;;;5072106;28;20040;-85
2023/07/27 04:04:48;;;;;;;10.10;7.63;;;13.60;99.90;;;;;;5058236;28;20048;-86
2023/07/27 04:07:14;;;;;;;9.73;7.50;;;13.70;99.90;;;;;;5072432;28;20387;-85
2023/07/27 04:09:39;;;;;;;12.30;7.53;;;13.60;99.90;;;;;;5066040;28;20102;-86
2023/07/27 04:12:06;;;;;;;8.23;7.15;;;13.60;99.90;;;;;;5051259;28;20036;-86
2023/07/27 04:14:31;;;;;;;9.27;7.28;;;13.60;99.90;;;;;;5049396;28;20037;-85
2023/07/27 04:16:57;;;;;;;11.45;7.65;;;13.50;99.90;;;;;;5067367;28;20043;-85
2023/07/27 04:19:22;;;;;;;10.85;7.90;;;13.60;99.90;;;;;;5066053;28;20380;-85
2023/07/27 04:21:48;;;;;;;8.40;7.30;;;13.60;99.90;;;;;;5048259;28;20078;-85
2023/07/27 04:24:13;;;;;;;9.65;7.15;;;13.50;99.90;;;;;;5080630;28;20106;-84
2023/07/27 04:26:39;;;;;;;9.93;7.43;;;13.50;99.90;;;;;;5075672;28;20127;-84
2023/07/27 04:29:05;;;;;;;10.95;7.70;;;13.70;99.90;;;;;;5076730;28;20634;-85
2023/07/27 04:31:30;;;;;;;10.85;7.72;;;13.60;99.90;;;;;;5061112;28;20136;-86
2023/07/27 04:33:56;;;;;;;8.13;7.07;;;13.60;99.90;;;;;;5052768;28;20109;-86
2023/07/27 04:36:21;;;;;;;12.55;7.63;;;13.50;99.90;;;;;;5052332;28;20068;-86
2023/07/27 04:38:47;;;;;;;10.57;7.50;;;13.60;99.90;;;;;;5070001;28;20064;-85
2023/07/27 04:41:13;;;;;;;10.07;7.43;;;13.50;99.90;;;;;;5071669;28;20059;-85
2023/07/27 04:43:39;;;;;;;10.20;7.10;;;13.60;99.90;;;;;;5087530;28;20040;-86
2023/07/27 04:46:04;;;;;;;10.18;7.68;;;13.60;99.90;;;;;;5074409;28;20036;-86
2023/07/27 04:48:31;;;;;;;8.35;6.82;;;13.60;99.90;;;;;;5069852;28;20479;-85
2023/07/27 04:50:56;;;;;;;9.50;7.38;;;13.60;99.90;;;;;;5053606;28;20040;-85
2023/07/27 04:53:23;;;;;;;10.30;7.88;;;13.60;99.90;;;;;;5071202;28;20746;-85
2023/07/27 04:55:48;;;;;;;8.32;6.97;;;13.60;99.90;;;;;;5070288;28;20124;-85
2023/07/27 04:58:14;;;;;;;9.88;7.15;;;13.60;99.90;;;;;;5079629;28;20431;-84
2023/07/27 05:00:39;;;;;;;10.00;7.43;;;13.70;99.90;;;;;;5074531;28;20544;-84
2023/07/27 05:03:05;;;;;;;8.40;6.70;;;13.70;99.90;;;;;;5052596;28;20059;-84
2023/07/27 05:05:31;;;;;;;10.35;7.10;;;13.70;99.90;;;;;;5069499;28;20064;-84
2023/07/27 05:07:56;;;;;;;10.35;7.13;;;13.70;99.90;;;;;;5072437;28;20434;-85
2023/07/27 05:10:23;;;;;;;10.63;7.10;;;13.70;99.90;;;;;;5076617;28;20119;-84
2023/07/27 05:12:49;;;;;;;9.73;6.75;;;13.70;99.90;;;;;;5075543;28;20049;-84
2023/07/27 05:15:15;;;;;;;8.00;6.97;;;13.80;99.90;;;;;;5052503;28;20049;-84
2023/07/27 05:17:41;;;;;;;7.63;6.55;;;13.80;99.90;;;;;;5076661;28;20081;-85
2023/07/27 05:20:07;;;;;;;9.98;6.28;;;13.90;99.90;;;;;;5062349;28;20043;-85
2023/07/27 05:22:34;;;;;;;8.88;6.35;;;13.90;99.90;;;;;;5068005;28;20040;-86
2023/07/27 05:24:59;;;;;;;9.27;6.80;;;13.90;99.90;;;;;;5073634;28;20135;-85
2023/07/27 05:27:28;;;;;;;8.20;5.97;;;13.60;99.90;;;;;;5066955;28;20152;-86
2023/07/27 05:29:54;;;;;;;7.47;6.10;;;13.70;99.90;;;;;;5073278;28;20040;-85
2023/07/27 05:32:19;;;;;;;7.78;6.25;;;13.90;99.90;;;;;;5077760;28;20086;-86
2023/07/27 05:34:45;;;;;;;7.05;5.85;;;14.00;99.90;;;;;;5073876;28;20074;-87
2023/07/27 05:37:10;;;;;;;8.05;5.80;;;14.00;99.90;;;;;;5052507;28;20052;-85
2023/07/27 05:39:36;;;;;;;7.80;5.30;;;14.00;99.90;;;;;;5052959;28;20052;-85
2023/07/27 05:42:02;;;;;;;6.88;5.75;;;14.00;99.90;;;;;;5071356;28;20154;-88
2023/07/27 05:44:27;;;;;;;7.13;6.18;;;14.10;99.90;;;;;;5089682;28;20048;-87
2023/07/27 05:46:55;;;;;;;5.95;5.32;;;14.00;99.90;;;;;;5070981;28;20059;-85
2023/07/27 05:49:20;;;;;;;6.53;5.70;;;14.10;99.90;;;;;;5052385;28;20056;-83
2023/07/27 05:51:46;;;;;;;6.88;6.03;;;14.10;99.90;;;;;;5068369;28;20037;-84
2023/07/27 05:54:12;;;;;;;7.72;5.75;;;14.50;99.90;;;;;;5052666;28;20118;-83
2023/07/27 05:56:37;;;;;;;7.43;5.97;;;14.20;99.90;;;;;;5056653;28;20102;-84
2023/07/27 05:59:03;;;;;;;7.22;5.72;;;14.20;99.90;;;;;;5068935;28;20068;-84
2023/07/27 06:01:29;;;;;;;7.35;6.43;;;14.20;99.90;;;;;;5083412;28;20048;-84
2023/07/27 06:03:54;;;;;;;8.05;6.35;;;14.20;99.90;;;;;;5071560;28;20070;-83
2023/07/27 06:06:20;;;;;;;8.40;6.97;;;14.50;99.90;;;;;;5085053;28;20086;-84
2023/07/27 06:08:45;;;;;;;8.95;7.28;;;14.30;99.90;;;;;;5082102;28;20591;-83
2023/07/27 06:11:11;;;;;;;9.55;7.40;;;14.40;99.90;;;;;;5077771;28;20044;-84
2023/07/27 06:13:36;;;;;;;9.35;7.13;;;14.30;99.90;;;;;;5057646;28;20075;-85
2023/07/27 06:16:03;;;;;;;8.50;7.60;;;14.80;99.90;;;;;;5051774;28;20041;-83
2023/07/27 06:18:28;;;;;;;9.93;7.57;;;14.40;99.90;;;;;;5068686;28;20644;-84
2023/07/27 06:20:54;;;;;;;10.30;7.57;;;14.40;99.90;;;;;;5050827;28;20033;-84
2023/07/27 06:23:19;;;;;;;8.93;7.28;;;14.50;99.90;;;;;;5068739;28;20052;-84
2023/07/27 06:25:45;;;;;;;8.80;7.82;;;14.50;99.90;;;;;;5051121;28;20131;-87
2023/07/27 06:28:11;;;;;;;8.13;6.80;;;14.50;99.90;;;;;;5069494;28;20044;-87
2023/07/27 06:30:38;;;;;;;8.30;7.50;;;14.50;99.90;;;;;;5085105;28;20046;-87
2023/07/27 06:33:05;;;;;;;10.18;8.18;;;14.50;99.90;;;;;;5085313;28;20052;-87
2023/07/27 06:35:31;;;;;;;9.93;7.70;;;14.50;99.90;;;;;;5087534;28;20551;-86
2023/07/27 06:37:57;;;;;;;10.10;8.05;;;14.60;99.90;;;;;;5086460;28;20060;-87
2023/07/27 06:40:23;;;;;;;11.07;7.60;;;14.60;99.90;;;;;;5088064;28;20048;-88
2023/07/27 06:42:48;;;;;;;9.43;8.02;;;14.60;99.90;;;;;;5069227;28;20055;-88
2023/07/27 06:45:14;;;;;;;8.50;7.60;;;14.70;99.90;;;;;;5084213;28;20046;-87
2023/07/27 06:47:40;;;;;;;11.77;8.32;;;14.70;99.90;;;;;;5068902;28;20043;-87
2023/07/27 06:50:06;;;;;;;9.35;7.63;;;14.70;99.90;;;;;;5062326;28;20098;-87
2023/07/27 06:52:32;;;;;;;9.90;7.75;;;14.80;99.90;;;;;;5070052;28;20052;-87
2023/07/27 06:54:58;;;;;;;10.32;7.82;;;14.80;99.90;;;;;;5087569;28;20059;-87
2023/07/27 06:57:27;;;;;;;10.35;7.70;;;14.80;99.90;;;;;;5076815;28;20052;-90
2023/07/27 06:59:52;;;;;;;10.25;8.15;;;14.80;99.90;;;;;;5070385;28;20040;-89
2023/07/27 07:02:18;;;;;;;8.95;7.53;;;14.90;99.90;;;;;;5072028;28;20113;-88
2023/07/27 07:04:45;;;;;;;9.27;8.27;;;14.90;99.90;;;;;;5074788;28;20055;-88
2023/07/27 07:07:11;;;;;;;10.27;8.82;;;14.90;99.90;;;;;;5082362;28;20094;-87
2023/07/27 07:09:38;;;;;;;9.13;8.20;;;14.90;99.90;;;;;;5078162;28;20048;-86
2023/07/27 07:12:05;;;;;;;9.85;8.15;;;14.90;99.90;;;;;;5050673;28;20131;-86
2023/07/27 07:14:31;;;;;;;9.25;7.85;;;15.00;99.90;;;;;;5067638;28;20318;-87
2023/07/27 07:17:00;;;;;;;9.05;8.07;;;15.10;99.90;;;;;;5070443;28;20160;-87
2023/07/27 07:19:26;;;;;;;10.95;8.52;;;15.00;99.90;;;;;;5071302;28;20041;-85
2023/07/27 07:21:52;;;;;;;9.80;8.38;;;15.00;99.90;;;;;;5080443;28;20051;-86
2023/07/27 07:24:18;;;;;;;9.35;8.10;;;15.00;99.90;;;;;;5074611;28;20075;-85
2023/07/27 07:26:45;;;;;;;8.57;7.68;;;15.10;99.90;;;;;;5071973;28;20102;-87
2023/07/27 07:29:11;;;;;;;9.60;8.13;;;15.20;99.90;;;;;;5072435;28;20084;-88
2023/07/27 07:31:37;;;;;;;9.30;7.45;;;15.50;99.90;;;;;;5086957;28;20047;-86
2023/07/27 07:34:02;;;;;;;7.90;7.10;;;15.20;99.90;;;;;;5086188;28;20405;-86
2023/07/27 07:36:28;;;;;;;8.77;7.60;;;15.10;99.90;;;;;;5078898;28;20040;-88
2023/07/27 07:38:53;;;;;;;10.23;7.40;;;15.20;99.90;;;;;;5076244;28;20062;-86
2023/07/27 07:41:19;;;;;;;8.88;7.32;;;15.30;99.90;;;;;;5086959;28;20044;-87
2023/07/27 07:43:44;;;;;;;7.50;6.65;;;14.90;99.90;;;;;;5086522;28;20070;-88
2023/07/27 07:46:11;;;;;;;8.02;6.97;;;15.20;99.90;;;;;;5084811;28;20360;-88
2023/07/27 07:48:36;;;;;;;6.93;6.32;;;15.10;99.90;;;;;;5073923;28;20131;-88
2023/07/27 07:51:02;;;;;;;7.43;6.68;;;15.20;99.90;;;;;;5068293;28;20434;-88
2023/07/27 07:53:28;;;;;;;7.15;6.45;;;15.10;99.90;;;;;;5081022;28;20044;-88
2023/07/27 07:55:53;;;;;;;6.50;5.78;;;15.10;99.90;;;;;;5049622;28;20147;-84
2023/07/27 07:58:19;;;;;;;6.60;5.90;;;15.20;99.90;;;;;;5065838;28;20080;-84
2023/07/27 08:00:44;;;;;;;7.28;6.05;;;15.50;99.90;;;;;;5071134;28;21540;-86
2023/07/27 08:03:10;;;;;;;6.80;6.10;;;15.20;99.90;;;;;;5066633;28;20052;-86
2023/07/27 08:05:36;;;;;;;6.47;5.55;;;15.20;99.90;;;;;;5086762;28;20439;-84
2023/07/27 08:08:02;;;;;;;6.35;5.75;;;15.30;99.90;;;;;;5055194;28;20405;-84
2023/07/27 08:10:28;;;;;;;6.45;5.78;;;15.30;99.90;;;;;;5085840;28;20093;-85
2023/07/27 08:12:53;;;;;;;6.30;5.70;;;15.30;99.90;;;;;;5067972;28;20107;-84
2023/07/27 08:15:19;;;;;;;6.32;5.72;;;15.40;99.90;;;;;;5064972;28;20109;-84
2023/07/27 08:17:45;;;;;;;5.90;5.30;;;15.00;99.90;;;;;;5066656;28;20052;-84
2023/07/27 08:20:11;;;;;;;6.25;5.28;;;15.30;99.90;;;;;;5065835;28;20157;-84
2023/07/27 08:22:37;;;;;;;5.85;5.30;;;15.30;99.90;;;;;;5084243;28;20474;-84
2023/07/27 08:25:05;;;;;;;5.60;5.10;;;15.70;99.90;;;;;;5053667;28;20094;-88
2023/07/27 08:27:34;;;;;;;5.20;4.70;;;15.50;99.90;;;;;;5066239;28;20219;-86
2023/07/27 08:30:00;;;;;;;5.18;4.68;;;15.50;99.90;;;;;;5065731;28;20064;-86
2023/07/27 08:32:25;;;;;;;5.32;4.68;;;15.60;99.90;;;;;;5049575;28;20041;-86
2023/07/27 08:34:51;;;;;;;5.22;4.75;;;15.60;99.90;;;;;;5066143;28;20062;-87
2023/07/27 08:37:16;;;;;;;5.97;5.15;;;15.60;99.90;;;;;;5066128;28;20106;-87
2023/07/27 08:39:42;;;;;;;5.05;4.60;;;15.70;99.90;;;;;;5048885;28;20048;-86
2023/07/27 08:42:09;;;;;;;5.40;4.97;;;15.70;99.90;;;;;;5049422;28;20499;-84
2023/07/27 08:44:34;;;;;;;5.68;5.13;;;15.70;99.90;;;;;;5065866;28;20060;-85
2023/07/27 08:47:02;;;;;;;5.07;4.68;;;16.20;99.90;;;;;;5048958;28;20064;-85
2023/07/27 08:49:30;;;;;;;5.90;5.40;;;15.70;99.90;;;;;;5048808;28;20041;-84
2023/07/27 08:51:55;;;;;;;5.72;5.22;;;15.90;99.90;;;;;;5048989;28;20048;-84
2023/07/27 08:54:21;;;;;;;6.05;5.55;;;15.70;99.90;;;;;;5050045;28;20055;-85
2023/07/27 08:56:48;;;;;;;5.93;5.43;;;16.00;99.90;;;;;;5052111;28;20388;-87
2023/07/27 08:59:13;;;;;;;6.13;5.53;;;15.80;99.90;;;;;;5049745;28;20047;-88
2023/07/27 09:01:39;;;;;;;6.55;6.03;;;15.80;99.90;;;;;;5048938;28;20040;-88
2023/07/27 09:04:06;;;;;;;5.75;5.35;;;15.80;99.90;;;;;;5049436;28;20040;-87
2023/07/27 09:06:39;;;;;;;6.35;5.85;;;15.80;99.90;;;;;;5048619;28;20052;-87
2023/07/27 09:09:15;;;;;;;5.55;5.15;;;15.80;99.90;;;;;;5050694;28;20080;-88
2023/07/27 09:11:42;;;;;;;5.95;5.55;;;15.80;99.90;;;;;;5048840;28;20045;-88
2023/07/27 09:14:08;;;;;;;6.07;5.57;;;15.90;99.90;;;;;;5049392;28;20090;-88
2023/07/27 09:16:37;;;;;;;6.30;5.80;;;15.90;99.90;;;;;;5052292;28;20079;-85
2023/07/27 09:19:04;;;;;;;5.90;5.50;;;16.00;99.90;;;;;;5070144;28;20123;-86
2023/07/27 09:21:48;;;;;;;6.07;5.57;;;16.10;99.90;;;;;;5071903;28;20045;-85
2023/07/27 09:24:15;;;;;;;5.45;5.05;;;16.10;99.90;;;;;;5053290;28;20056;-85
2023/07/27 09:26:49;;;;;;;5.82;5.40;;;16.20;99.90;;;;;;5069694;28;20199;-84
2023/07/27 09:29:20;;;;;;;5.43;5.03;;;16.30;99.90;;;;;;5069339;28;20044;-85
2023/07/27 09:31:48;;;;;;;5.40;5.00;;;16.30;99.90;;;;;;5059132;28;20046;-84
2023/07/27 09:34:14;;;;;;;5.47;4.97;;;16.60;99.90;;;;;;5072744;28;20106;-84
2023/07/27 09:36:40;;;;;;;4.75;4.25;;;16.60;99.90;;;;;;5072037;28;20048;-85
2023/07/27 09:39:07;;;;;;;4.80;4.40;;;16.50;99.90;;;;;;5089506;28;20101;-85
2023/07/27 09:41:33;;;;;;;5.30;4.47;;;16.60;99.90;;;;;;5072526;28;20417;-84
2023/07/27 09:43:58;;;;;;;4.43;4.03;;;16.80;99.90;;;;;;5089169;28;20119;-85
2023/07/27 09:46:25;;;;;;;4.40;4.00;;;16.60;99.90;;;;;;5089696;28;20052;-85
2023/07/27 09:48:54;;;;;;;4.30;4.00;;;16.90;99.90;;;;;;5072173;28;20087;-85
2023/07/27 09:51:22;;;;;;;4.07;3.78;;;16.70;99.90;;;;;;5089244;28;20055;-84
2023/07/27 09:53:48;;;;;;;4.13;3.83;;;16.70;99.90;;;;;;5069941;28;20044;-85
2023/07/27 09:56:15;;;;;;;4.00;3.70;;;16.70;99.90;;;;;;5089178;28;20072;-85
2023/07/27 09:58:47;;;;;;;4.28;3.90;;;16.80;99.90;;;;;;5071604;28;20043;-85
2023/07/27 10:01:13;;;;;;;3.97;3.67;;;16.80;99.90;;;;;;5089058;28;20062;-84
2023/07/27 10:03:39;;;;;;;3.70;3.40;;;16.90;99.90;;;;;;5060066;28;20044;-85
2023/07/27 10:06:06;;;;;;;3.65;3.45;;;17.10;99.90;;;;;;5068266;28;20036;-85
2023/07/27 10:08:33;;;;;;;4.05;3.70;;;17.00;99.90;;;;;;5051658;28;20092;-85
2023/07/27 10:11:29;;;;;;;;;;;;;;;;;;;;;
2023/07/27 10:14:18;;;;;;;3.70;3.40;;;17.00;99.90;;;;;;5069884;28;20066;-86
2023/07/27 10:17:07;;;;;;;3.63;3.42;;;17.10;99.90;;;;;;5087010;28;20040;-85
2023/07/27 10:19:52;;;;;;;2.83;2.63;;;17.10;99.90;;;;;;5053982;28;20063;-85
2023/07/27 10:22:19;;;;;;;3.05;2.85;;;17.20;99.90;;;;;;5085514;28;20048;-88
2023/07/27 10:24:58;;;;;;;3.20;3.00;;;17.30;99.90;;;;;;5089762;28;20163;-86
2023/07/27 10:27:24;;;;;;;3.30;3.00;;;17.40;99.90;;;;;;5072567;28;20536;-87
2023/07/27 10:30:10;;;;;;;4.53;2.90;;;17.60;99.90;;;;;;5071536;28;20040;-86
2023/07/27 10:32:36;;;;;;;4.53;3.17;;;17.40;99.90;;;;;;5082773;28;20076;-86
2023/07/27 10:35:06;;;;;;;3.20;3.00;;;17.50;99.90;;;;;;5075183;28;20043;-86
2023/07/27 10:37:55;;;;;;;3.20;3.00;;;17.50;99.90;;;;;;5081990;28;20052;-85
2023/07/27 10:40:25;;;;;;;3.10;2.90;;;17.60;99.90;;;;;;5089499;28;20052;-88
2023/07/27 10:42:58;;;;;;;3.10;2.80;;;17.60;99.90;;;;;;5073140;28;20517;-87
2023/07/27 10:45:27;;;;;;;3.15;2.78;;;17.60;99.90;;;;;;5089638;28;20042;-89
2023/07/27 10:47:56;;;;;;;3.03;2.83;;;17.60;99.90;;;;;;5078713;28;20040;-87
2023/07/27 10:50:23;;;;;;;2.97;2.78;;;18.00;99.90;;;;;;5068910;28;20054;-86
2023/07/27 10:52:53;;;;;;;2.83;2.63;;;17.70;99.90;;;;;;5089080;28;20103;-86
2023/07/27 10:55:22;;;;;;;3.20;3.00;;;17.70;99.90;;;;;;5088659;28;20055;-86
2023/07/27 10:57:53;;;;;;;3.15;2.95;;;17.80;99.90;;;;;;5083047;28;20037;-86
2023/07/27 11:00:19;;;;;;;3.20;3.00;;;17.80;99.90;;;;;;5068298;28;20045;-86
2023/07/27 11:02:45;;;;;;;3.60;3.30;;;18.30;99.90;;;;;;5051402;28;20041;-86
2023/07/27 11:05:12;;;;;;;3.40;3.10;;;17.90;99.90;;;;;;5051322;28;20151;-85
2023/07/27 11:07:40;;;;;;;3.83;3.53;;;17.60;99.90;;;;;;5068114;28;20556;-87
2023/07/27 11:10:10;;;;;;;3.60;3.30;;;17.90;99.90;;;;;;5068942;28;20093;-85
2023/07/27 11:12:50;;;;;;;3.70;3.40;;;17.90;99.90;;;;;;5052030;28;20036;-85
2023/07/27 11:15:24;;;;;;;3.65;3.33;;;17.90;99.90;;;;;;5083801;28;20055;-87
2023/07/27 11:17:52;;;;;;;3.70;3.50;;;18.00;99.90;;;;;;5083867;28;20274;-86
2023/07/27 11:20:20;;;;;;;3.63;3.40;;;18.40;99.90;;;;;;5070630;28;20058;-85
2023/07/27 11:22:50;;;;;;;3.50;3.30;;;18.10;99.90;;;;;;5070799;28;20039;-87
2023/07/27 11:25:16;;;;;;;3.63;3.33;;;18.20;99.90;;;;;;5075795;28;20045;-86
2023/07/27 11:27:42;;;;;;;3.83;3.53;;;18.40;99.90;;;;;;5071162;28;20464;-85
2023/07/27 11:30:12;;;;;;;3.67;3.38;;;18.10;99.90;;;;;;5087868;28;20048;-86
2023/07/27 11:32:38;;;;;;;3.30;3.00;;;18.20;99.90;;;;;;5070909;28;20040;-86
2023/07/27 11:35:04;;;;;;;3.10;2.90;;;18.20;99.90;;;;;;5080338;28;20041;-86
2023/07/27 11:37:31;;;;;;;3.53;2.88;;;18.30;99.90;;;;;;5067738;28;20048;-86
2023/07/27 11:39:57;;;;;;;3.28;3.08;;;18.30;99.90;;;;;;5068292;28;20056;-86
2023/07/27 11:42:28;;;;;;;4.53;3.20;;;18.40;99.90;;;;;;5067944;28;20040;-87
2023/07/27 11:44:54;;;;;;;3.67;3.45;;;18.50;99.90;;;;;;5051550;28;20056;-86
2023/07/27 11:47:22;;;;;;;3.20;3.00;;;18.70;99.90;;;;;;5088133;28;20044;-86
2023/07/27 11:49:50;;;;;;;3.60;3.30;;;18.80;99.90;;;;;;5085078;28;20052;-85
2023/07/27 11:52:19;;;;;;;3.42;3.22;;;18.80;99.90;;;;;;5069323;28;20119;-86
2023/07/27 11:54:50;;;;;;;2.95;2.75;;;18.80;99.90;;;;;;5067110;28;20476;-86
2023/07/27 11:57:15;;;;;;;3.45;3.15;;;19.10;99.90;;;;;;5068188;28;20151;-86
2023/07/27 11:59:57;;;;;;;3.00;2.80;;;18.90;99.90;;;;;;5067789;28;20160;-86
2023/07/27 12:02:23;;;;;;;2.80;2.60;;;18.80;99.90;;;;;;5069314;28;20047;-85
2023/07/27 12:04:49;;;;;;;2.88;2.47;;;18.80;99.90;;;;;;5086974;28;20048;-87
2023/07/27 12:07:14;;;;;;;2.63;2.42;;;18.80;99.90;;;;;;5087789;28;20139;-86
2023/07/27 12:09:41;;;;;;;2.58;2.38;;;18.80;99.90;;;;;;5088083;28;20052;-86
2023/07/27 12:12:09;;;;;;;2.50;2.40;;;18.90;99.90;;;;;;5072208;28;20029;-85
2023/07/27 12:14:35;;;;;;;2.30;2.20;;;18.90;99.90;;;;;;5066600;28;20044;-86
2023/07/27 12:17:09;;;;;;;3.10;2.75;;;19.00;99.90;;;;;;5067185;28;20098;-86
2023/07/27 12:19:35;;;;;;;2.40;2.25;;;19.30;99.90;;;;;;5066800;28;20166;-86
2023/07/27 12:22:01;;;;;;;2.85;2.58;;;19.30;99.90;;;;;;5050437;28;20076;-86
2023/07/27 12:24:26;;;;;;;2.90;2.70;;;19.50;99.90;;;;;;5067082;28;20150;-86
2023/07/27 12:26:52;;;;;;;2.65;2.53;;;18.90;99.90;;;;;;5068011;28;20052;-85
2023/07/27 12:29:18;;;;;;;2.80;2.60;;;19.50;99.90;;;;;;5066713;28;20040;-86
2023/07/27 12:31:43;;;;;;;4.90;2.72;;;19.30;99.90;;;;;;5070633;28;20101;-87
2023/07/27 12:34:09;;;;;;;3.42;3.13;;;19.30;99.90;;;;;;5070320;28;20052;-88
2023/07/27 12:36:34;;;;;;;3.50;3.20;;;19.20;99.90;;;;;;5086623;28;20146;-88
2023/07/27 12:39:00;;;;;;;3.90;3.47;;;19.40;99.90;;;;;;5071606;28;20077;-89
2023/07/27 12:41:26;;;;;;;3.30;3.03;;;19.20;99.90;;;;;;5082145;28;20054;-89
2023/07/27 12:43:52;;;;;;;3.50;3.30;;;19.30;99.90;;;;;;5069630;28;20043;-87
2023/07/27 12:46:17;;;;;;;3.03;2.78;;;18.70;99.90;;;;;;5069368;28;20540;-86
2023/07/27 12:48:43;;;;;;;3.85;3.00;;;19.20;99.90;;;;;;5088267;28;20110;-85
2023/07/27 12:51:09;;;;;;;3.42;3.13;;;19.10;99.90;;;;;;5089348;28;20044;-85